Time;durP1;ratioP1;P1;durP2;ratioP2;P2;SDS_P1;SDS_P2;PMS_P1;PMS_P2;Temp;Humidity;BMP_temperature;BMP_pressure;BME280_temperature;BME280_humidity;BME280_pressure;Samples;Min_cycle;Max_cycle;Signal;HPM_P1;HPM_P2
2022/12/06 00:02:56;;;;;;;49.48;23.95;;;;;;;5.49;100.00;99020.05;2256251;79;21013;-59
2022/12/06 00:05:57;;;;;;;53.65;24.72;;;;;;;5.49;100.00;99020.05;2256103;79;21053;-58
2022/12/06 00:08:58;;;;;;;53.02;23.92;;;;;;;5.44;100.00;99015.45;2256430;79;21503;-58
2022/12/06 00:12:00;;;;;;;51.65;25.05;;;;;;;5.37;100.00;99016.59;2256044;79;21087;-59
2022/12/06 00:15:01;;;;;;;48.60;23.15;;;;;;;5.32;100.00;99007.66;2256541;79;21488;-58
2022/12/06 00:18:03;;;;;;;51.23;24.70;;;;;;;5.20;100.00;99005.06;2256290;79;21049;-59
2022/12/06 00:21:04;;;;;;;53.63;25.90;;;;;;;5.31;100.00;99005.12;2256362;79;21088;-59
2022/12/06 00:24:06;;;;;;;49.58;24.65;;;;;;;5.48;100.00;99000.59;2256279;79;21387;-59
2022/12/06 00:27:07;;;;;;;52.58;24.57;;;;;;;5.51;100.00;99000.48;2256104;79;21055;-59
2022/12/06 00:30:09;;;;;;;49.83;24.30;;;;;;;5.50;100.00;98995.73;2256218;79;21024;-59
2022/12/06 00:33:10;;;;;;;50.28;25.57;;;;;;;5.48;100.00;99002.73;2256145;79;21012;-59
2022/12/06 00:36:12;;;;;;;51.33;25.13;;;;;;;5.57;100.00;98992.90;2251338;79;21086;-58
2022/12/06 00:39:13;;;;;;;51.83;25.90;;;;;;;5.53;100.00;98992.15;2248850;79;21064;-59
2022/12/06 00:42:15;;;;;;;54.23;25.40;;;;;;;5.44;100.00;98999.84;2249552;79;21572;-59
2022/12/06 00:45:16;;;;;;;51.10;25.85;;;;;;;5.55;100.00;98991.19;2248878;79;21059;-59
2022/12/06 00:48:18;;;;;;;50.67;25.15;;;;;;;5.69;100.00;98993.74;2249432;79;21527;-59
2022/12/06 00:51:19;;;;;;;52.43;25.48;;;;;;;5.71;100.00;98991.92;2249282;79;21076;-58
2022/12/06 00:54:21;;;;;;;53.68;26.93;;;;;;;5.72;100.00;98989.72;2249036;79;21033;-59
2022/12/06 00:57:22;;;;;;;50.70;25.43;;;;;;;5.58;100.00;98991.53;2249157;79;21021;-60
2022/12/06 01:00:23;;;;;;;50.00;24.70;;;;;;;5.47;100.00;98998.43;2248996;79;21056;-59
2022/12/06 01:03:25;;;;;;;52.23;24.87;;;;;;;5.38;100.00;98998.78;2249160;79;21021;-60
2022/12/06 01:06:26;;;;;;;50.15;24.43;;;;;;;5.29;100.00;98996.54;2248888;79;21061;-58
2022/12/06 01:09:29;;;;;;;52.00;25.48;;;;;;;5.27;100.00;98998.33;2249456;79;21496;-58
2022/12/06 01:12:31;;;;;;;51.70;24.30;;;;;;;5.32;100.00;98993.81;2249042;79;21038;-58
2022/12/06 01:15:32;;;;;;;50.00;25.43;;;;;;;5.45;100.00;98987.70;2249430;79;21087;-58
2022/12/06 01:18:34;;;;;;;52.00;25.55;;;;;;;5.42;100.00;98979.56;2248702;79;20988;-59
2022/12/06 01:21:35;;;;;;;54.10;26.93;;;;;;;5.40;100.00;98981.35;2249111;79;21460;-59
2022/12/06 01:24:37;;;;;;;56.80;26.77;;;;;;;5.36;100.00;98978.03;2249020;79;21032;-59
2022/12/06 01:27:38;;;;;;;51.67;25.23;;;;;;;5.37;100.00;98977.57;2249339;79;21586;-59
2022/12/06 01:30:40;;;;;;;51.92;26.05;;;;;;;5.35;100.00;98977.63;2249017;79;21016;-59
2022/12/06 01:33:41;;;;;;;52.80;25.30;;;;;;;5.25;100.00;98968.48;2249381;79;21497;-58
2022/12/06 01:36:43;;;;;;;50.52;25.70;;;;;;;5.27;100.00;98968.42;2248598;79;20997;-59
2022/12/06 01:39:44;;;;;;;51.58;24.63;;;;;;;5.34;100.00;98962.08;2248998;79;20983;-58
2022/12/06 01:42:45;;;;;;;50.73;25.12;;;;;;;5.42;100.00;98950.95;2249379;79;21009;-59
2022/12/06 01:45:47;;;;;;;50.85;25.37;;;;;;;5.43;100.00;98956.98;2249178;79;21048;-59
2022/12/06 01:48:50;;;;;;;53.20;25.35;;;;;;;5.42;100.00;98948.81;2220085;79;21548;-59
2022/12/06 01:51:51;;;;;;;48.52;23.42;;;;;;;5.44;100.00;98954.78;2249329;79;21084;-59
2022/12/06 01:54:53;;;;;;;50.17;24.10;;;;;;;5.38;100.00;98942.86;2249167;79;21053;-58
2022/12/06 01:57:54;;;;;;;49.55;25.15;;;;;;;5.38;100.00;98938.49;2249352;79;21025;-59
2022/12/06 02:00:56;;;;;;;51.50;25.40;;;;;;;5.44;100.00;98941.31;2249208;79;21049;-59
2022/12/06 02:03:57;;;;;;;52.70;26.57;;;;;;;5.33;100.00;98931.33;2249294;79;21575;-58
2022/12/06 02:06:59;;;;;;;50.48;24.92;;;;;;;5.30;100.00;98932.75;2249185;79;21095;-58
2022/12/06 02:10:00;;;;;;;50.92;25.17;;;;;;;5.20;100.00;98933.98;2249454;79;21459;-60
2022/12/06 02:13:01;;;;;;;52.25;26.45;;;;;;;5.06;100.00;98925.41;2249422;79;21029;-59
2022/12/06 02:16:03;;;;;;;53.52;26.42;;;;;;;5.01;100.00;98919.52;2249034;79;21077;-59
2022/12/06 02:19:05;;;;;;;53.43;26.07;;;;;;;4.93;100.00;98905.52;2249571;79;21045;-59
2022/12/06 02:22:06;;;;;;;50.92;24.65;;;;;;;4.86;100.00;98904.88;2248801;79;21671;-59
2022/12/06 02:25:08;;;;;;;49.07;23.83;;;;;;;4.92;100.00;98909.47;2249565;79;21053;-59
2022/12/06 02:28:09;;;;;;;50.20;25.27;;;;;;;4.96;100.00;98914.50;2249137;79;21666;-59
2022/12/06 02:31:11;;;;;;;51.88;25.80;;;;;;;5.02;100.00;98907.77;2249315;79;21602;-59
2022/12/06 02:34:12;;;;;;;57.70;26.17;;;;;;;5.01;100.00;98910.42;2249159;79;21048;-59
2022/12/06 02:37:13;;;;;;;54.53;25.57;;;;;;;5.10;100.00;98908.80;2254986;79;21475;-59
2022/12/06 02:40:15;;;;;;;49.85;25.20;;;;;;;5.15;100.00;98905.55;2256310;79;21092;-58
2022/12/06 02:43:16;;;;;;;53.13;25.72;;;;;;;5.20;100.00;98893.23;2256236;79;21055;-59
2022/12/06 02:46:18;;;;;;;52.62;25.55;;;;;;;5.18;100.00;98893.73;2256444;79;21067;-59
2022/12/06 02:49:19;;;;;;;50.17;25.15;;;;;;;5.22;100.00;98889.28;2256225;79;21016;-59
2022/12/06 02:52:23;;;;;;;54.35;25.05;;;;;;;5.24;100.00;98885.31;2256487;79;21108;-59
2022/12/06 02:55:24;;;;;;;53.15;25.35;;;;;;;5.26;100.00;98879.59;2256435;79;20965;-60
2022/12/06 02:58:25;;;;;;;54.90;26.05;;;;;;;5.21;100.00;98882.38;2256268;79;21087;-58
2022/12/06 03:01:27;;;;;;;51.73;25.17;;;;;;;5.24;100.00;98874.91;2256423;79;21114;-58
2022/12/06 03:07:31;;;;;;;52.38;26.05;;;;;;;5.26;100.00;98870.48;2229384;79;20981;-58
2022/12/06 03:10:34;;;;;;;55.57;27.63;;;;;;;5.29;100.00;98865.19;2256736;79;21017;-59
2022/12/06 03:13:36;;;;;;;59.27;26.97;;;;;;;5.35;100.00;98869.68;2256478;79;21570;-59
2022/12/06 03:16:38;;;;;;;54.80;25.97;;;;;;;5.41;100.00;98867.30;2256167;79;21047;-58
2022/12/06 03:19:40;;;;;;;50.60;25.90;;;;;;;5.41;100.00;98861.26;2256251;79;21551;-58
2022/12/06 03:22:41;;;;;;;54.20;26.83;;;;;;;5.37;100.00;98864.42;2256424;79;21040;-58
2022/12/06 03:25:43;;;;;;;52.98;24.75;;;;;;;5.36;100.00;98857.08;2256317;79;21627;-59
2022/12/06 03:28:44;;;;;;;48.50;23.57;;;;;;;5.39;100.00;98852.22;2256471;79;21029;-59
2022/12/06 03:31:46;;;;;;;53.05;26.77;;;;;;;5.39;100.00;98852.22;2256182;79;21702;-59
2022/12/06 03:34:47;;;;;;;50.75;25.43;;;;;;;5.35;100.00;98850.17;2256252;79;21045;-59
2022/12/06 03:37:49;;;;;;;55.10;26.57;;;;;;;5.31;100.00;98850.36;2256042;79;21057;-58
2022/12/06 03:40:50;;;;;;;55.70;26.30;;;;;;;5.37;100.00;98839.70;2256427;79;21535;-59
2022/12/06 03:43:51;;;;;;;52.50;27.02;;;;;;;5.38;100.00;98834.91;2256174;79;21063;-59
2022/12/06 03:46:53;;;;;;;52.93;25.73;;;;;;;5.15;100.00;98830.61;2256662;79;21547;-59
2022/12/06 03:49:55;;;;;;;52.85;25.57;;;;;;;5.03;100.00;98826.27;2256413;79;21301;-59
2022/12/06 03:52:56;;;;;;;51.75;25.37;;;;;;;4.99;100.00;98816.89;2256030;79;21130;-58
2022/12/06 03:55:58;;;;;;;48.68;23.42;;;;;;;4.72;100.00;98815.34;2256260;79;21028;-59
2022/12/06 03:59:00;;;;;;;48.33;23.67;;;;;;;4.63;100.00;98812.64;2256296;79;21056;-59
2022/12/06 04:02:01;;;;;;;53.45;25.82;;;;;;;4.70;100.00;98811.51;2256267;79;21057;-59
2022/12/06 04:05:03;;;;;;;50.12;23.92;;;;;;;4.64;100.00;98803.48;2256068;79;21029;-58
2022/12/06 04:08:04;;;;;;;46.70;22.70;;;;;;;4.53;100.00;98806.09;2256404;79;21102;-59
2022/12/06 04:11:05;;;;;;;48.85;22.35;;;;;;;4.60;100.00;98801.06;2255866;79;21008;-58
2022/12/06 04:14:07;;;;;;;49.13;23.22;;;;;;;4.50;100.00;98791.45;2256639;79;21538;-59
2022/12/06 04:20:12;;;;;;;51.50;25.90;;;;;;;4.38;100.00;98781.05;2229276;79;21052;-58
2022/12/06 04:23:13;;;;;;;49.70;23.30;;;;;;;4.28;100.00;98777.09;2256517;79;21490;-59
2022/12/06 04:26:14;;;;;;;47.78;22.52;;;;;;;4.36;100.00;98781.56;2256372;79;21008;-58
2022/12/06 04:44:33;;;;;;;48.10;23.52;;;;;;;4.33;100.00;98750.52;2220017;79;21013;-59
2022/12/06 04:47:34;;;;;;;49.08;23.95;;;;;;;4.34;100.00;98744.43;2248672;79;21538;-59
2022/12/06 04:50:35;;;;;;;50.67;24.63;;;;;;;4.35;100.00;98743.50;2249164;79;21024;-58
2022/12/06 04:53:37;;;;;;;48.60;22.70;;;;;;;4.43;100.00;98740.64;2249098;79;21106;-58
2022/12/06 04:56:38;;;;;;;45.73;22.77;;;;;;;4.43;100.00;98735.45;2249118;79;21052;-58
2022/12/06 04:59:40;;;;;;;47.83;23.85;;;;;;;4.49;100.00;98737.34;2249018;79;21024;-58
2022/12/06 05:02:41;;;;;;;46.35;23.20;;;;;;;4.58;100.00;98727.05;2249165;79;21536;-58
2022/12/06 05:05:43;;;;;;;48.25;23.42;;;;;;;4.62;100.00;98718.70;2248950;79;21076;-58
2022/12/06 05:08:44;;;;;;;46.75;22.85;;;;;;;4.53;100.00;98713.41;2249769;79;21544;-59
2022/12/06 05:11:45;;;;;;;48.75;24.87;;;;;;;4.41;100.00;98707.38;2249132;79;21036;-59
2022/12/06 05:14:47;;;;;;;54.90;30.68;;;;;;;4.42;100.00;98698.69;2248819;79;21123;-59
2022/12/06 05:17:48;;;;;;;50.98;24.00;;;;;;;4.27;100.00;98703.55;2249395;79;21029;-59
2022/12/06 05:20:50;;;;;;;49.25;23.32;;;;;;;4.28;100.00;98713.48;2249223;79;21052;-60
2022/12/06 05:23:52;;;;;;;46.75;22.50;;;;;;;4.41;100.00;98711.27;2249243;79;21034;-59
2022/12/06 05:26:53;;;;;;;47.00;22.73;;;;;;;4.50;100.00;98718.73;2249447;79;21065;-59
2022/12/06 05:29:54;;;;;;;48.68;22.65;;;;;;;4.72;100.00;98718.74;2249611;79;21480;-60
2022/12/06 05:32:56;;;;;;;49.90;22.93;;;;;;;4.72;100.00;98716.14;2249353;79;21355;-59
2022/12/06 05:35:57;;;;;;;47.27;22.95;;;;;;;4.72;100.00;98723.94;2249393;79;21605;-59
2022/12/06 05:38:59;;;;;;;50.08;23.20;;;;;;;4.78;100.00;98712.46;2249564;79;21051;-59
2022/12/06 05:42:01;;;;;;;48.00;22.02;;;;;;;4.78;100.00;98706.80;2249694;79;21466;-59
2022/12/06 05:45:03;;;;;;;;;;;;;;;4.92;100.00;98709.33;2251687;79;21093;-59
2022/12/06 05:48:05;;;;;;;46.83;21.55;;;;;;;4.91;100.00;98715.42;2249409;79;20121;-59
2022/12/06 05:51:06;;;;;;;48.52;22.87;;;;;;;4.92;100.00;98706.73;2249217;79;21056;-59
2022/12/06 05:54:07;;;;;;;46.18;22.85;;;;;;;4.90;100.00;98709.83;2249336;79;21534;-60
2022/12/06 05:57:09;;;;;;;49.23;25.30;;;;;;;4.99;100.00;98709.47;2249411;79;21072;-59
2022/12/06 06:00:10;;;;;;;46.50;24.47;;;;;;;5.08;100.00;98709.09;2249296;79;22225;-58
2022/12/06 06:03:12;;;;;;;46.77;21.60;;;;;;;5.11;100.00;98717.23;2249187;79;21021;-59
2022/12/06 06:06:13;;;;;;;44.83;20.37;;;;;;;5.12;100.00;98717.16;2249197;79;21041;-59
2022/12/06 06:09:15;;;;;;;41.58;20.12;;;;;;;5.12;100.00;98721.53;2249204;79;21068;-59
2022/12/06 06:12:16;;;;;;;44.40;20.60;;;;;;;5.08;100.00;98718.19;2249182;79;21064;-59
2022/12/06 06:15:17;;;;;;;41.55;19.52;;;;;;;5.15;100.00;98717.50;2249367;79;21547;-58
2022/12/06 06:18:19;;;;;;;42.05;19.85;;;;;;;5.23;100.00;98718.48;2249146;79;21021;-59
2022/12/06 06:21:21;;;;;;;40.73;19.17;;;;;;;5.11;100.00;98708.96;2249078;79;21564;-58
2022/12/06 06:24:23;;;;;;;43.17;19.52;;;;;;;5.01;100.00;98711.11;2249421;79;21066;-59
2022/12/06 06:27:24;;;;;;;37.85;18.02;;;;;;;4.97;100.00;98699.58;2249366;79;21500;-60
2022/12/06 06:30:26;;;;;;;38.98;18.42;;;;;;;4.86;100.00;98694.82;2249319;79;21088;-59
2022/12/06 06:33:27;;;;;;;38.10;17.27;;;;;;;4.76;100.00;98700.83;2249692;79;21547;-59
2022/12/06 06:36:29;;;;;;;37.93;17.23;;;;;;;4.76;100.00;98698.23;2249260;79;21052;-59
2022/12/06 06:39:30;;;;;;;36.70;16.77;;;;;;;4.74;100.00;98693.99;2249065;79;21582;-59
2022/12/06 06:42:32;;;;;;;39.95;18.23;;;;;;;4.73;100.00;98691.86;2249391;79;21075;-60
2022/12/06 06:45:33;;;;;;;40.63;17.42;;;;;;;4.82;100.00;98691.95;2249203;79;21068;-59
2022/12/06 06:48:35;;;;;;;37.53;16.93;;;;;;;4.98;100.00;98696.08;2249513;79;21028;-59
2022/12/06 06:51:36;;;;;;;39.03;17.75;;;;;;;4.99;100.00;98699.08;2249274;79;21107;-58
2022/12/06 06:54:38;;;;;;;35.98;16.67;;;;;;;4.96;100.00;98698.73;2249537;79;21547;-59
2022/12/06 06:57:40;;;;;;;35.52;15.78;;;;;;;5.00;100.00;98709.88;2249257;79;21009;-59
2022/12/06 07:00:41;;;;;;;36.42;16.32;;;;;;;4.97;100.00;98712.14;2249393;79;21052;-58
2022/12/06 07:03:43;;;;;;;34.90;15.68;;;;;;;4.96;100.00;98703.10;2249128;79;21020;-59
2022/12/06 07:06:44;;;;;;;36.15;16.10;;;;;;;4.93;100.00;98698.00;2249133;79;21595;-59
2022/12/06 07:09:45;;;;;;;37.90;17.95;;;;;;;4.93;100.00;98697.56;2249120;79;21064;-59
2022/12/06 07:12:47;;;;;;;35.50;16.17;;;;;;;4.96;100.00;98695.30;2249496;79;21056;-58
2022/12/06 07:15:48;;;;;;;36.58;17.95;;;;;;;5.03;100.00;98692.85;2249235;79;21020;-58
2022/12/06 07:18:50;;;;;;;37.98;17.15;;;;;;;5.05;100.00;98698.82;2249151;79;21076;-58
2022/12/06 07:21:52;;;;;;;39.42;18.57;;;;;;;5.09;100.00;98689.99;2249157;79;21080;-59
2022/12/06 07:24:53;;;;;;;36.10;16.17;;;;;;;5.08;100.00;98685.69;2249108;79;21057;-59
2022/12/06 07:27:54;;;;;;;38.83;16.65;;;;;;;4.99;100.00;98686.08;2249237;79;21044;-59
2022/12/06 07:30:56;;;;;;;35.05;15.72;;;;;;;5.12;100.00;98686.42;2249246;79;21017;-58
2022/12/06 07:33:57;;;;;;;37.07;16.40;;;;;;;5.06;100.00;98691.42;2249531;79;21563;-58
2022/12/06 07:36:59;;;;;;;36.48;16.40;;;;;;;5.05;100.00;98697.52;2251144;79;21060;-59
2022/12/06 07:40:00;;;;;;;33.42;15.50;;;;;;;5.07;100.00;98693.55;2256086;79;21579;-59
2022/12/06 07:46:05;;;;;;;35.68;16.27;;;;;;;5.24;100.00;98690.27;2229553;79;20941;-58
2022/12/06 07:49:06;;;;;;;34.83;16.15;;;;;;;5.26;100.00;98686.70;2256597;79;21550;-59
2022/12/06 07:52:08;;;;;;;36.13;16.63;;;;;;;5.25;100.00;98688.91;2256181;79;21039;-58
2022/12/06 07:55:09;;;;;;;40.98;18.82;;;;;;;5.17;100.00;98673.63;2256276;79;21036;-59
2022/12/06 07:58:12;;;;;;;36.58;17.02;;;;;;;5.08;100.00;98668.80;2255933;79;21092;-59
2022/12/06 08:01:13;;;;;;;39.15;18.20;;;;;;;4.93;100.00;98665.51;2256332;79;21012;-59
2022/12/06 08:04:15;;;;;;;37.00;16.95;;;;;;;4.70;100.00;98658.20;2256293;79;21029;-59
2022/12/06 08:07:17;;;;;;;35.83;15.98;;;;;;;4.65;100.00;98656.23;2256384;79;21558;-59
2022/12/06 08:10:19;;;;;;;36.20;16.57;;;;;;;4.40;100.00;98643.38;2256396;79;21053;-58
2022/12/06 08:13:20;;;;;;;36.35;16.70;;;;;;;4.40;100.00;98643.38;2256400;79;21574;-59
2022/12/06 08:16:21;;;;;;;34.08;14.90;;;;;;;4.40;100.00;98642.08;2256384;79;21032;-59
2022/12/06 08:19:23;;;;;;;35.58;15.08;;;;;;;4.47;100.00;98640.93;2256137;79;21020;-58
2022/12/06 08:22:24;;;;;;;41.97;18.70;;;;;;;4.46;100.00;98636.17;2256622;79;21091;-59
2022/12/06 08:25:26;;;;;;;61.55;31.57;;;;;;;4.39;100.00;98637.78;2256671;79;21048;-59
2022/12/06 08:28:27;;;;;;;33.88;14.93;;;;;;;4.39;100.00;98640.38;2256188;79;21115;-59
2022/12/06 08:31:29;;;;;;;45.60;20.45;;;;;;;4.39;100.00;98639.91;2256136;79;21033;-59
2022/12/06 08:34:31;;;;;;;45.35;19.62;;;;;;;4.37;100.00;98634.38;2256153;79;21039;-58
2022/12/06 08:37:33;;;;;;;34.65;15.20;;;;;;;4.40;100.00;98640.77;2255926;79;21023;-59
2022/12/06 08:40:34;;;;;;;39.03;18.40;;;;;;;4.47;100.00;98636.57;2256398;79;21060;-59
2022/12/06 08:43:36;;;;;;;36.73;15.35;;;;;;;4.62;100.00;98639.47;2256126;79;21013;-59
2022/12/06 08:46:37;;;;;;;34.75;14.70;;;;;;;4.62;100.00;98635.58;2256243;79;21534;-59
2022/12/06 08:49:39;;;;;;;32.70;14.65;;;;;;;4.60;100.00;98634.80;2256112;79;21020;-59
2022/12/06 08:52:40;;;;;;;32.98;14.60;;;;;;;4.74;100.00;98635.53;2256476;79;21569;-58
2022/12/06 08:55:42;;;;;;;32.53;13.60;;;;;;;4.92;100.00;98637.85;2256426;79;21147;-58
2022/12/06 08:58:43;;;;;;;34.75;15.28;;;;;;;5.06;100.00;98639.42;2256340;79;21043;-59
2022/12/06 09:01:45;;;;;;;33.88;15.05;;;;;;;5.10;100.00;98630.59;2256220;79;21031;-59
2022/12/06 09:04:46;;;;;;;36.98;15.75;;;;;;;5.08;100.00;98633.70;2256096;79;21031;-59
2022/12/06 09:07:47;;;;;;;34.67;15.25;;;;;;;5.17;100.00;98627.27;2256222;79;21024;-59
2022/12/06 09:10:49;;;;;;;32.48;13.58;;;;;;;5.14;100.00;98619.59;2256114;79;21014;-59
2022/12/06 09:13:50;;;;;;;32.42;13.08;;;;;;;5.22;100.00;98617.52;2256375;79;21512;-59
2022/12/06 09:16:52;;;;;;;36.60;15.10;;;;;;;5.25;100.00;98617.86;2256108;79;21032;-59
2022/12/06 09:19:53;;;;;;;36.00;14.65;;;;;;;5.15;100.00;98612.20;2256494;79;21476;-59
2022/12/06 09:22:55;;;;;;;41.57;16.77;;;;;;;4.99;100.00;98597.70;2256293;79;21031;-59
2022/12/06 09:25:56;;;;;;;43.85;17.05;;;;;;;4.99;100.00;98597.70;2256006;79;21755;-59
2022/12/06 09:28:58;;;;;;;36.98;15.90;;;;;;;4.85;100.00;98599.56;2256251;79;21020;-59
2022/12/06 09:31:59;;;;;;;42.70;19.45;;;;;;;5.00;100.00;98601.53;2256131;79;20991;-59
2022/12/06 09:35:01;;;;;;;47.17;21.13;;;;;;;4.99;100.00;98596.40;2256344;79;21020;-58
2022/12/06 09:38:02;;;;;;;27.27;10.93;;;;;;;5.02;100.00;98589.77;2255984;79;21753;-58
2022/12/06 09:41:04;;;;;;;29.85;12.40;;;;;;;5.00;100.00;98584.63;2256320;79;21516;-59
2022/12/06 09:44:06;;;;;;;27.73;11.22;;;;;;;4.94;100.00;98584.90;2256336;79;21096;-59
2022/12/06 09:47:07;;;;;;;27.60;10.58;;;;;;;4.86;100.00;98577.41;2256496;79;21503;-59
2022/12/06 09:50:09;;;;;;;26.48;10.68;;;;;;;4.73;100.00;98577.53;2256084;79;21088;-59
2022/12/06 09:53:10;;;;;;;28.55;12.30;;;;;;;4.83;100.00;98581.44;2255725;79;21008;-59
2022/12/06 09:56:12;;;;;;;29.05;11.35;;;;;;;4.91;100.00;98577.20;2256186;79;20969;-59
2022/12/06 09:59:13;;;;;;;26.97;11.15;;;;;;;5.03;100.00;98573.27;2255873;79;21004;-59
2022/12/06 10:02:14;;;;;;;26.25;10.03;;;;;;;5.14;100.00;98567.59;2256409;79;20992;-60
2022/12/06 10:05:16;;;;;;;25.80;10.80;;;;;;;5.22;100.00;98576.39;2256342;79;21040;-59
2022/12/06 10:08:17;;;;;;;25.37;10.25;;;;;;;5.25;100.00;98565.84;2256625;79;21562;-59
2022/12/06 10:11:19;;;;;;;27.82;10.75;;;;;;;5.32;100.00;98557.70;2256366;79;21056;-59
2022/12/06 10:14:20;;;;;;;26.13;10.60;;;;;;;5.37;100.00;98558.35;2256775;79;21507;-59
2022/12/06 10:17:22;;;;;;;25.92;9.98;;;;;;;5.49;100.00;98552.22;2256195;79;21784;-59
2022/12/06 10:20:23;;;;;;;26.05;9.45;;;;;;;5.60;100.00;98547.36;2256224;79;21056;-59
2022/12/06 10:23:25;;;;;;;25.45;8.98;;;;;;;5.65;100.00;98554.98;2256359;79;21001;-58
2022/12/06 10:26:26;;;;;;;29.92;10.35;;;;;;;5.66;100.00;98545.80;2256265;79;21055;-59
2022/12/06 10:29:28;;;;;;;32.85;10.98;;;;;;;5.67;100.00;98540.13;2256420;79;21021;-59
2022/12/06 10:32:29;;;;;;;29.07;10.90;;;;;;;5.67;100.00;98548.77;2256254;79;21044;-59
2022/12/06 10:35:30;;;;;;;25.32;9.85;;;;;;;5.67;100.00;98542.73;2256388;79;21547;-58
2022/12/06 10:38:32;;;;;;;29.52;11.60;;;;;;;5.63;100.00;98543.34;2251973;79;21045;-59
2022/12/06 10:41:35;;;;;;;23.95;8.35;;;;;;;5.52;100.00;98523.00;2249533;79;21567;-59
2022/12/06 10:44:37;;;;;;;23.40;8.40;;;;;;;5.52;100.00;98523.00;2249377;79;21091;-59
2022/12/06 10:47:38;;;;;;;24.77;9.35;;;;;;;5.61;100.00;98528.70;2249035;79;21575;-59
2022/12/06 10:50:40;;;;;;;24.35;9.60;;;;;;;5.68;100.00;98520.53;2249276;79;21009;-59
2022/12/06 10:53:41;;;;;;;26.17;11.05;;;;;;;5.68;100.00;98518.41;2249521;79;21470;-59
2022/12/06 10:56:42;;;;;;;25.50;9.80;;;;;;;5.77;100.00;98516.66;2249482;79;21017;-59
2022/12/06 10:59:44;;;;;;;24.32;9.63;;;;;;;5.73;100.00;98510.77;2249232;79;21033;-59
2022/12/06 11:02:45;;;;;;;27.27;9.70;;;;;;;5.83;100.00;98513.80;2249346;79;21053;-58
2022/12/06 11:05:47;;;;;;;26.55;10.00;;;;;;;5.72;100.00;98505.17;2249162;79;21064;-58
2022/12/06 11:08:48;;;;;;;25.90;10.60;;;;;;;5.74;100.00;98511.61;2249378;79;21052;-58
2022/12/06 11:11:50;;;;;;;24.63;9.88;;;;;;;5.64;100.00;98511.18;2249239;79;21052;-59
2022/12/06 11:14:51;;;;;;;25.70;10.28;;;;;;;5.65;100.00;98508.14;2249255;79;21634;-59
2022/12/06 11:17:53;;;;;;;116.25;47.05;;;;;;;5.64;100.00;98507.74;2249245;79;21028;-58
2022/12/06 11:20:55;;;;;;;36.15;17.65;;;;;;;5.74;100.00;98502.50;2249623;79;21052;-59
2022/12/06 11:23:57;;;;;;;26.52;10.72;;;;;;;5.73;100.00;98499.06;2249377;79;21095;-59
2022/12/06 11:26:59;;;;;;;26.20;11.07;;;;;;;5.44;100.00;98499.55;2249661;79;21021;-60
2022/12/06 11:30:01;;;;;;;25.60;10.15;;;;;;;5.44;100.00;98499.55;2249137;79;21751;-59
2022/12/06 11:33:02;;;;;;;27.32;11.12;;;;;;;5.47;100.00;98494.20;2249290;79;21119;-59
2022/12/06 11:36:04;;;;;;;30.68;11.88;;;;;;;5.51;100.00;98489.25;2249076;79;21016;-60
2022/12/06 11:39:05;;;;;;;28.60;12.07;;;;;;;5.57;100.00;98490.73;2253640;79;21606;-59
2022/12/06 11:42:07;;;;;;;27.20;10.93;;;;;;;5.59;100.00;98486.28;2256147;79;21091;-59
2022/12/06 11:45:08;;;;;;;28.35;11.48;;;;;;;5.59;100.00;98483.24;2256129;79;21520;-59
2022/12/06 11:48:09;;;;;;;28.42;13.53;;;;;;;5.50;100.00;98481.91;2256282;79;21017;-58
2022/12/06 11:51:11;;;;;;;25.10;10.48;;;;;;;5.58;100.00;98480.25;2256154;79;21019;-59
2022/12/06 11:54:13;;;;;;;29.27;12.10;;;;;;;5.54;100.00;98475.63;2256522;79;21092;-58
2022/12/06 11:57:14;;;;;;;35.58;14.70;;;;;;;5.42;100.00;98472.30;2256160;79;21036;-59
2022/12/06 12:00:16;;;;;;;25.65;10.90;;;;;;;5.35;100.00;98474.33;2255911;79;20995;-59
2022/12/06 12:03:17;;;;;;;38.30;16.02;;;;;;;5.42;100.00;98463.20;2256160;79;21071;-59
2022/12/06 12:06:18;;;;;;;30.27;12.78;;;;;;;5.42;100.00;98458.00;2256125;79;21583;-58
2022/12/06 12:09:20;;;;;;;23.30;9.33;;;;;;;5.54;100.00;98455.28;2256448;79;21036;-58
2022/12/06 12:12:22;;;;;;;85.37;32.97;;;;;;;5.47;100.00;98446.91;2256439;79;22243;-59
2022/12/06 12:15:23;;;;;;;102.90;41.30;;;;;;;5.51;100.00;98448.45;2256250;79;20997;-58
2022/12/06 12:18:24;;;;;;;73.35;30.88;;;;;;;5.50;100.00;98447.23;2256167;79;21063;-59
2022/12/06 12:21:26;;;;;;;41.45;17.60;;;;;;;5.55;100.00;98444.80;2256250;79;21029;-59
2022/12/06 12:24:27;;;;;;;35.65;15.63;;;;;;;5.66;100.00;98447.36;2256089;79;21095;-59
2022/12/06 12:27:29;;;;;;;48.73;21.60;;;;;;;5.71;100.00;98442.79;2256375;79;21028;-59
2022/12/06 12:30:31;;;;;;;31.55;13.08;;;;;;;5.75;100.00;98440.88;2256129;79;21016;-59
2022/12/06 12:33:32;;;;;;;38.42;17.07;;;;;;;5.78;100.00;98440.28;2256307;79;21028;-58
2022/12/06 12:36:34;;;;;;;40.92;17.60;;;;;;;5.71;100.00;98441.48;2256126;79;21060;-59
2022/12/06 12:39:35;;;;;;;35.35;17.10;;;;;;;5.52;100.00;98439.75;2255970;79;21023;-58
2022/12/06 12:42:38;;;;;;;42.05;22.48;;;;;;;5.68;100.00;98436.44;2256082;79;20968;-59
2022/12/06 12:45:40;;;;;;;44.10;21.00;;;;;;;5.62;100.00;98440.16;2256118;79;20960;-59
2022/12/06 12:48:42;;;;;;;31.83;15.17;;;;;;;5.45;100.00;98438.81;2256395;79;21585;-59
2022/12/06 12:51:43;;;;;;;30.20;13.03;;;;;;;5.40;100.00;98439.47;2256238;79;21040;-59
2022/12/06 12:54:44;;;;;;;29.25;11.97;;;;;;;5.43;100.00;98439.33;2256075;79;21012;-59
2022/12/06 12:57:46;;;;;;;28.83;11.95;;;;;;;5.43;100.00;98436.72;2256244;79;21025;-59
2022/12/06 13:00:47;;;;;;;26.00;10.93;;;;;;;5.43;100.00;98433.69;2256077;79;21004;-58
2022/12/06 13:03:49;;;;;;;32.80;13.93;;;;;;;5.35;100.00;98430.58;2256160;79;21555;-59
2022/12/06 13:06:50;;;;;;;54.73;32.50;;;;;;;5.28;100.00;98428.70;2256218;79;21060;-59
2022/12/06 13:09:52;;;;;;;39.92;20.27;;;;;;;5.28;100.00;98427.41;2256155;79;20973;-58
2022/12/06 13:12:53;;;;;;;43.73;26.12;;;;;;;5.25;100.00;98425.42;2256259;79;21032;-59
2022/12/06 13:15:54;;;;;;;46.58;24.98;;;;;;;5.15;100.00;98418.02;2256107;79;20964;-59
2022/12/06 13:18:56;;;;;;;35.67;16.43;;;;;;;5.27;100.00;98417.08;2256650;79;21099;-59
2022/12/06 13:21:58;;;;;;;32.13;15.78;;;;;;;5.31;100.00;98406.45;2256103;79;21728;-59
2022/12/06 13:24:59;;;;;;;38.05;16.27;;;;;;;5.35;100.00;98405.88;2256050;79;21045;-59
2022/12/06 13:28:01;;;;;;;34.13;15.00;;;;;;;5.36;100.00;98405.80;2256143;79;21028;-59
2022/12/06 13:31:02;;;;;;;38.60;17.42;;;;;;;5.26;100.00;98411.48;2256036;79;21510;-58
2022/12/06 13:34:03;;;;;;;56.15;31.70;;;;;;;5.25;100.00;98408.52;2256174;79;21029;-58
2022/12/06 13:37:05;;;;;;;47.75;20.72;;;;;;;5.26;100.00;98399.78;2256206;79;21025;-58
2022/12/06 13:40:06;;;;;;;37.30;15.80;;;;;;;5.23;100.00;98406.43;2250267;79;21096;-58
2022/12/06 13:43:08;;;;;;;30.08;12.20;;;;;;;5.24;100.00;98402.45;2249204;79;21025;-59
2022/12/06 13:46:09;;;;;;;33.63;13.35;;;;;;;5.08;100.00;98399.72;2249311;79;21012;-59
2022/12/06 13:49:11;;;;;;;35.15;16.40;;;;;;;5.02;100.00;98403.91;2249459;79;21069;-59
2022/12/06 13:52:12;;;;;;;36.17;16.10;;;;;;;5.03;100.00;98399.93;2249442;79;21505;-58
2022/12/06 13:55:14;;;;;;;34.03;15.70;;;;;;;5.06;100.00;98401.99;2249183;79;21017;-60
2022/12/06 13:58:15;;;;;;;29.48;12.65;;;;;;;5.08;100.00;98404.91;2249430;79;21586;-59
2022/12/06 14:01:17;;;;;;;32.65;14.45;;;;;;;5.05;100.00;98405.06;2249296;79;21094;-59
2022/12/06 14:04:18;;;;;;;50.65;28.62;;;;;;;5.01;100.00;98417.37;2249161;79;21111;-59
2022/12/06 14:07:19;;;;;;;42.58;18.92;;;;;;;5.02;100.00;98411.23;2249330;79;21033;-59
2022/12/06 14:10:21;;;;;;;38.63;14.43;;;;;;;5.07;100.00;98408.88;2249204;79;21036;-59
2022/12/06 14:13:22;;;;;;;36.55;15.40;;;;;;;5.02;100.00;98405.20;2249473;79;20945;-59
2022/12/06 14:16:24;;;;;;;31.45;13.20;;;;;;;5.03;100.00;98400.40;2249156;79;21013;-59
2022/12/06 14:19:25;;;;;;;35.90;16.15;;;;;;;5.10;100.00;98410.91;2249118;79;21575;-59